sensor_id;sensor_type;location;lat;lon;timestamp;P1;durP1;ratioP1;P2;durP2;ratioP2
40653;SDS011;26344;45.532;9.232;2023-03-23T00:02:10;10.07;;;4.38;;
40653;SDS011;26344;45.532;9.232;2023-03-23T00:04:36;9.23;;;4.88;;
40653;SDS011;26344;45.532;9.232;2023-03-23T00:07:02;9.25;;;4.82;;
40653;SDS011;26344;45.532;9.232;2023-03-23T00:09:28;7.82;;;4.55;;
40653;SDS011;26344;45.532;9.232;2023-03-23T00:11:59;9.30;;;5.20;;
40653;SDS011;26344;45.532;9.232;2023-03-23T00:14:31;9.50;;;5.20;;
40653;SDS011;26344;45.532;9.232;2023-03-23T00:17:06;9.23;;;5.25;;
40653;SDS011;26344;45.532;9.232;2023-03-23T00:19:34;9.32;;;5.35;;
40653;SDS011;26344;45.532;9.232;2023-03-23T00:22:14;12.57;;;5.20;;
40653;SDS011;26344;45.532;9.232;2023-03-23T00:24:41;11.10;;;5.57;;
40653;SDS011;26344;45.532;9.232;2023-03-23T00:27:09;11.45;;;5.68;;
40653;SDS011;26344;45.532;9.232;2023-03-23T00:29:37;10.30;;;5.40;;
40653;SDS011;26344;45.532;9.232;2023-03-23T00:32:03;9.65;;;5.68;;
40653;SDS011;26344;45.532;9.232;2023-03-23T00:34:29;11.02;;;5.30;;
40653;SDS011;26344;45.532;9.232;2023-03-23T00:36:57;8.13;;;5.53;;
40653;SDS011;26344;45.532;9.232;2023-03-23T00:39:23;7.97;;;5.55;;
40653;SDS011;26344;45.532;9.232;2023-03-23T00:41:50;10.45;;;5.30;;
40653;SDS011;26344;45.532;9.232;2023-03-23T00:44:16;8.93;;;5.50;;
40653;SDS011;26344;45.532;9.232;2023-03-23T00:46:47;10.43;;;5.57;;
40653;SDS011;26344;45.532;9.232;2023-03-23T00:49:15;9.77;;;5.30;;
40653;SDS011;26344;45.532;9.232;2023-03-23T00:51:42;7.97;;;5.47;;
40653;SDS011;26344;45.532;9.232;2023-03-23T00:54:08;6.60;;;4.68;;
40653;SDS011;26344;45.532;9.232;2023-03-23T00:56:34;15.15;;;5.55;;
40653;SDS011;26344;45.532;9.232;2023-03-23T00:59:01;8.52;;;4.95;;
40653;SDS011;26344;45.532;9.232;2023-03-23T01:01:27;6.90;;;4.82;;
40653;SDS011;26344;45.532;9.232;2023-03-23T01:03:53;8.73;;;4.68;;
40653;SDS011;26344;45.532;9.232;2023-03-23T01:06:25;8.65;;;5.15;;
40653;SDS011;26344;45.532;9.232;2023-03-23T01:08:52;6.53;;;4.60;;
40653;SDS011;26344;45.532;9.232;2023-03-23T01:11:19;7.43;;;4.68;;
40653;SDS011;26344;45.532;9.232;2023-03-23T01:13:45;10.98;;;4.30;;
40653;SDS011;26344;45.532;9.232;2023-03-23T01:16:11;6.80;;;4.80;;
40653;SDS011;26344;45.532;9.232;2023-03-23T01:18:37;8.95;;;4.72;;
40653;SDS011;26344;45.532;9.232;2023-03-23T01:21:08;8.02;;;4.63;;
40653;SDS011;26344;45.532;9.232;2023-03-23T01:23:35;8.52;;;4.97;;
40653;SDS011;26344;45.532;9.232;2023-03-23T01:26:05;9.00;;;5.13;;
40653;SDS011;26344;45.532;9.232;2023-03-23T01:28:33;8.07;;;4.57;;
40653;SDS011;26344;45.532;9.232;2023-03-23T01:31:04;8.60;;;4.55;;
40653;SDS011;26344;45.532;9.232;2023-03-23T01:33:30;5.60;;;4.53;;
40653;SDS011;26344;45.532;9.232;2023-03-23T01:35:57;8.57;;;4.20;;
40653;SDS011;26344;45.532;9.232;2023-03-23T01:38:23;9.90;;;4.47;;
40653;SDS011;26344;45.532;9.232;2023-03-23T01:40:49;8.80;;;4.53;;
40653;SDS011;26344;45.532;9.232;2023-03-23T01:43:15;9.25;;;4.07;;
40653;SDS011;26344;45.532;9.232;2023-03-23T01:45:41;8.18;;;4.88;;
40653;SDS011;26344;45.532;9.232;2023-03-23T01:48:17;8.20;;;4.90;;
40653;SDS011;26344;45.532;9.232;2023-03-23T01:53:57;8.75;;;5.10;;
40653;SDS011;26344;45.532;9.232;2023-03-23T01:56:25;8.73;;;4.65;;
40653;SDS011;26344;45.532;9.232;2023-03-23T01:58:54;7.97;;;4.13;;
40653;SDS011;26344;45.532;9.232;2023-03-23T02:01:21;6.90;;;4.88;;
40653;SDS011;26344;45.532;9.232;2023-03-23T02:03:49;8.10;;;4.00;;
40653;SDS011;26344;45.532;9.232;2023-03-23T02:06:16;7.28;;;4.05;;
40653;SDS011;26344;45.532;9.232;2023-03-23T02:08:42;10.15;;;3.97;;
40653;SDS011;26344;45.532;9.232;2023-03-23T02:11:16;5.85;;;3.75;;
40653;SDS011;26344;45.532;9.232;2023-03-23T02:13:43;6.65;;;3.95;;
40653;SDS011;26344;45.532;9.232;2023-03-23T02:16:19;10.65;;;4.88;;
40653;SDS011;26344;45.532;9.232;2023-03-23T02:18:55;7.38;;;4.28;;
40653;SDS011;26344;45.532;9.232;2023-03-23T02:21:34;9.57;;;4.47;;
40653;SDS011;26344;45.532;9.232;2023-03-23T02:26:53;8.60;;;4.07;;
40653;SDS011;26344;45.532;9.232;2023-03-23T02:32:00;6.68;;;4.07;;
40653;SDS011;26344;45.532;9.232;2023-03-23T02:34:44;10.45;;;4.60;;
40653;SDS011;26344;45.532;9.232;2023-03-23T02:37:21;5.93;;;3.85;;
40653;SDS011;26344;45.532;9.232;2023-03-23T02:39:57;9.18;;;4.53;;
40653;SDS011;26344;45.532;9.232;2023-03-23T02:42:27;6.15;;;4.03;;
40653;SDS011;26344;45.532;9.232;2023-03-23T02:44:54;6.90;;;3.90;;
40653;SDS011;26344;45.532;9.232;2023-03-23T02:47:23;7.47;;;4.18;;
40653;SDS011;26344;45.532;9.232;2023-03-23T02:49:52;6.17;;;4.27;;
40653;SDS011;26344;45.532;9.232;2023-03-23T02:52:19;7.30;;;4.75;;
40653;SDS011;26344;45.532;9.232;2023-03-23T02:54:47;8.00;;;4.78;;
40653;SDS011;26344;45.532;9.232;2023-03-23T02:57:14;8.32;;;4.60;;
40653;SDS011;26344;45.532;9.232;2023-03-23T02:59:41;9.82;;;5.68;;
40653;SDS011;26344;45.532;9.232;2023-03-23T03:02:09;9.75;;;5.00;;
40653;SDS011;26344;45.532;9.232;2023-03-23T03:15:09;9.07;;;5.03;;
40653;SDS011;26344;45.532;9.232;2023-03-23T03:17:39;7.87;;;4.90;;
40653;SDS011;26344;45.532;9.232;2023-03-23T03:20:08;8.18;;;4.72;;
40653;SDS011;26344;45.532;9.232;2023-03-23T03:22:37;8.05;;;4.90;;
40653;SDS011;26344;45.532;9.232;2023-03-23T03:25:03;8.20;;;4.30;;
40653;SDS011;26344;45.532;9.232;2023-03-23T03:27:30;6.05;;;4.15;;
40653;SDS011;26344;45.532;9.232;2023-03-23T03:29:57;7.53;;;4.72;;
40653;SDS011;26344;45.532;9.232;2023-03-23T03:32:26;6.13;;;4.22;;
40653;SDS011;26344;45.532;9.232;2023-03-23T03:34:58;7.00;;;4.32;;
40653;SDS011;26344;45.532;9.232;2023-03-23T03:37:24;10.93;;;5.03;;
40653;SDS011;26344;45.532;9.232;2023-03-23T03:39:50;4.68;;;3.88;;
40653;SDS011;26344;45.532;9.232;2023-03-23T03:42:16;7.35;;;4.72;;
40653;SDS011;26344;45.532;9.232;2023-03-23T03:44:42;6.90;;;4.13;;
40653;SDS011;26344;45.532;9.232;2023-03-23T03:47:08;8.18;;;4.72;;
40653;SDS011;26344;45.532;9.232;2023-03-23T03:49:34;9.50;;;4.50;;
40653;SDS011;26344;45.532;9.232;2023-03-23T03:52:00;6.63;;;4.28;;
40653;SDS011;26344;45.532;9.232;2023-03-23T03:54:26;6.80;;;4.28;;
40653;SDS011;26344;45.532;9.232;2023-03-23T03:56:52;6.63;;;3.85;;
40653;SDS011;26344;45.532;9.232;2023-03-23T03:59:22;8.25;;;5.15;;
40653;SDS011;26344;45.532;9.232;2023-03-23T04:01:50;6.63;;;4.30;;
40653;SDS011;26344;45.532;9.232;2023-03-23T04:04:19;7.97;;;4.38;;
40653;SDS011;26344;45.532;9.232;2023-03-23T04:06:45;8.32;;;4.63;;
40653;SDS011;26344;45.532;9.232;2023-03-23T04:09:13;9.02;;;4.45;;
40653;SDS011;26344;45.532;9.232;2023-03-23T04:11:39;6.90;;;4.50;;
40653;SDS011;26344;45.532;9.232;2023-03-23T04:14:05;14.32;;;5.30;;
40653;SDS011;26344;45.532;9.232;2023-03-23T04:16:31;7.53;;;4.32;;
40653;SDS011;26344;45.532;9.232;2023-03-23T04:18:59;7.78;;;4.53;;
40653;SDS011;26344;45.532;9.232;2023-03-23T04:21:25;9.18;;;4.57;;
40653;SDS011;26344;45.532;9.232;2023-03-23T04:23:54;8.73;;;4.53;;
40653;SDS011;26344;45.532;9.232;2023-03-23T04:26:19;6.85;;;4.40;;
40653;SDS011;26344;45.532;9.232;2023-03-23T04:28:46;6.93;;;4.32;;
40653;SDS011;26344;45.532;9.232;2023-03-23T04:31:15;7.82;;;4.70;;
40653;SDS011;26344;45.532;9.232;2023-03-23T04:33:41;7.43;;;4.93;;
40653;SDS011;26344;45.532;9.232;2023-03-23T04:36:07;9.00;;;4.95;;
40653;SDS011;26344;45.532;9.232;2023-03-23T04:38:33;8.40;;;4.97;;
40653;SDS011;26344;45.532;9.232;2023-03-23T04:40:59;10.13;;;5.13;;
40653;SDS011;26344;45.532;9.232;2023-03-23T04:43:26;9.05;;;4.82;;
40653;SDS011;26344;45.532;9.232;2023-03-23T04:45:53;7.80;;;5.65;;
40653;SDS011;26344;45.532;9.232;2023-03-23T04:48:26;10.20;;;5.70;;
40653;SDS011;26344;45.532;9.232;2023-03-23T04:50:53;11.80;;;5.43;;
40653;SDS011;26344;45.532;9.232;2023-03-23T04:53:19;8.10;;;5.32;;
40653;SDS011;26344;45.532;9.232;2023-03-23T04:55:46;8.35;;;5.28;;
40653;SDS011;26344;45.532;9.232;2023-03-23T04:58:13;8.15;;;4.60;;
40653;SDS011;26344;45.532;9.232;2023-03-23T05:00:39;10.02;;;4.97;;
40653;SDS011;26344;45.532;9.232;2023-03-23T05:03:09;13.18;;;7.30;;
40653;SDS011;26344;45.532;9.232;2023-03-23T05:05:35;7.25;;;4.50;;
40653;SDS011;26344;45.532;9.232;2023-03-23T05:08:01;11.32;;;5.43;;
40653;SDS011;26344;45.532;9.232;2023-03-23T05:10:27;9.45;;;5.22;;
40653;SDS011;26344;45.532;9.232;2023-03-23T05:12:54;8.30;;;4.78;;
40653;SDS011;26344;45.532;9.232;2023-03-23T05:15:20;8.30;;;4.20;;
40653;SDS011;26344;45.532;9.232;2023-03-23T05:17:46;7.57;;;4.38;;
40653;SDS011;26344;45.532;9.232;2023-03-23T05:20:14;10.45;;;4.68;;
40653;SDS011;26344;45.532;9.232;2023-03-23T05:25:09;8.50;;;5.03;;
40653;SDS011;26344;45.532;9.232;2023-03-23T05:27:36;10.40;;;5.10;;
40653;SDS011;26344;45.532;9.232;2023-03-23T05:30:02;10.38;;;5.40;;
40653;SDS011;26344;45.532;9.232;2023-03-23T05:32:28;7.43;;;4.85;;
40653;SDS011;26344;45.532;9.232;2023-03-23T05:34:59;9.90;;;4.95;;
40653;SDS011;26344;45.532;9.232;2023-03-23T05:37:26;8.05;;;4.95;;
40653;SDS011;26344;45.532;9.232;2023-03-23T05:39:53;12.25;;;5.75;;
40653;SDS011;26344;45.532;9.232;2023-03-23T05:42:23;13.57;;;5.57;;
40653;SDS011;26344;45.532;9.232;2023-03-23T05:44:50;9.70;;;5.70;;
40653;SDS011;26344;45.532;9.232;2023-03-23T05:47:16;13.80;;;5.75;;
40653;SDS011;26344;45.532;9.232;2023-03-23T05:49:42;11.23;;;5.57;;
40653;SDS011;26344;45.532;9.232;2023-03-23T05:52:08;8.38;;;5.28;;
40653;SDS011;26344;45.532;9.232;2023-03-23T05:54:34;9.32;;;5.25;;
40653;SDS011;26344;45.532;9.232;2023-03-23T05:57:00;10.23;;;4.70;;
40653;SDS011;26344;45.532;9.232;2023-03-23T05:59:26;11.48;;;5.50;;
40653;SDS011;26344;45.532;9.232;2023-03-23T06:01:53;9.38;;;4.72;;
40653;SDS011;26344;45.532;9.232;2023-03-23T06:04:20;9.80;;;5.28;;
40653;SDS011;26344;45.532;9.232;2023-03-23T06:09:18;8.85;;;4.72;;
40653;SDS011;26344;45.532;9.232;2023-03-23T06:11:44;11.30;;;4.70;;
40653;SDS011;26344;45.532;9.232;2023-03-23T06:14:10;7.72;;;4.47;;
40653;SDS011;26344;45.532;9.232;2023-03-23T06:16:37;9.68;;;4.38;;
40653;SDS011;26344;45.532;9.232;2023-03-23T06:19:03;8.27;;;4.85;;
40653;SDS011;26344;45.532;9.232;2023-03-23T06:21:30;7.00;;;4.40;;
40653;SDS011;26344;45.532;9.232;2023-03-23T06:23:56;9.20;;;4.85;;
40653;SDS011;26344;45.532;9.232;2023-03-23T06:26:25;8.15;;;4.45;;
40653;SDS011;26344;45.532;9.232;2023-03-23T06:28:53;9.93;;;4.40;;
40653;SDS011;26344;45.532;9.232;2023-03-23T06:31:19;10.65;;;4.20;;
40653;SDS011;26344;45.532;9.232;2023-03-23T06:33:45;8.38;;;4.40;;
40653;SDS011;26344;45.532;9.232;2023-03-23T06:36:12;7.40;;;4.82;;
40653;SDS011;26344;45.532;9.232;2023-03-23T06:38:38;6.80;;;4.22;;
40653;SDS011;26344;45.532;9.232;2023-03-23T06:41:04;9.95;;;4.55;;
40653;SDS011;26344;45.532;9.232;2023-03-23T06:43:30;8.75;;;4.65;;
40653;SDS011;26344;45.532;9.232;2023-03-23T06:45:59;10.93;;;4.05;;
40653;SDS011;26344;45.532;9.232;2023-03-23T06:48:26;11.05;;;4.78;;
40653;SDS011;26344;45.532;9.232;2023-03-23T06:50:52;5.70;;;3.90;;
40653;SDS011;26344;45.532;9.232;2023-03-23T06:53:18;8.30;;;4.43;;
40653;SDS011;26344;45.532;9.232;2023-03-23T06:55:45;6.93;;;3.92;;
40653;SDS011;26344;45.532;9.232;2023-03-23T06:58:11;7.38;;;3.88;;
40653;SDS011;26344;45.532;9.232;2023-03-23T07:00:38;11.70;;;3.78;;
40653;SDS011;26344;45.532;9.232;2023-03-23T07:03:06;7.75;;;3.90;;
40653;SDS011;26344;45.532;9.232;2023-03-23T07:05:33;7.72;;;3.70;;
40653;SDS011;26344;45.532;9.232;2023-03-23T07:08:00;6.55;;;4.20;;
40653;SDS011;26344;45.532;9.232;2023-03-23T07:10:26;7.70;;;4.13;;
40653;SDS011;26344;45.532;9.232;2023-03-23T07:12:52;11.52;;;4.50;;
40653;SDS011;26344;45.532;9.232;2023-03-23T07:15:18;5.30;;;3.55;;
40653;SDS011;26344;45.532;9.232;2023-03-23T07:17:44;10.43;;;4.18;;
40653;SDS011;26344;45.532;9.232;2023-03-23T07:20:10;6.40;;;3.80;;
40653;SDS011;26344;45.532;9.232;2023-03-23T07:22:39;9.90;;;3.80;;
40653;SDS011;26344;45.532;9.232;2023-03-23T07:25:05;6.03;;;3.13;;
40653;SDS011;26344;45.532;9.232;2023-03-23T07:27:31;4.95;;;2.92;;
40653;SDS011;26344;45.532;9.232;2023-03-23T07:29:57;7.30;;;2.80;;
40653;SDS011;26344;45.532;9.232;2023-03-23T07:32:23;5.10;;;2.65;;
40653;SDS011;26344;45.532;9.232;2023-03-23T07:34:49;10.63;;;3.10;;
40653;SDS011;26344;45.532;9.232;2023-03-23T07:37:15;7.57;;;2.95;;
40653;SDS011;26344;45.532;9.232;2023-03-23T07:39:42;6.22;;;2.80;;
40653;SDS011;26344;45.532;9.232;2023-03-23T07:42:08;5.05;;;2.78;;
40653;SDS011;26344;45.532;9.232;2023-03-23T07:44:34;5.65;;;2.65;;
40653;SDS011;26344;45.532;9.232;2023-03-23T07:47:00;4.10;;;2.50;;
40653;SDS011;26344;45.532;9.232;2023-03-23T07:49:26;6.85;;;2.70;;
40653;SDS011;26344;45.532;9.232;2023-03-23T07:51:52;6.07;;;2.85;;
40653;SDS011;26344;45.532;9.232;2023-03-23T07:54:18;9.05;;;3.28;;
40653;SDS011;26344;45.532;9.232;2023-03-23T07:56:44;9.70;;;2.63;;
40653;SDS011;26344;45.532;9.232;2023-03-23T07:59:10;3.90;;;2.60;;
40653;SDS011;26344;45.532;9.232;2023-03-23T08:01:37;11.95;;;3.58;;
40653;SDS011;26344;45.532;9.232;2023-03-23T08:04:04;6.75;;;3.03;;
40653;SDS011;26344;45.532;9.232;2023-03-23T08:06:31;6.70;;;3.20;;
40653;SDS011;26344;45.532;9.232;2023-03-23T08:08:58;6.65;;;3.15;;
40653;SDS011;26344;45.532;9.232;2023-03-23T08:11:25;8.82;;;2.78;;
40653;SDS011;26344;45.532;9.232;2023-03-23T08:13:51;4.82;;;3.03;;
40653;SDS011;26344;45.532;9.232;2023-03-23T08:16:17;7.63;;;3.60;;
40653;SDS011;26344;45.532;9.232;2023-03-23T08:18:44;10.63;;;3.92;;
40653;SDS011;26344;45.532;9.232;2023-03-23T08:21:11;10.55;;;3.70;;
40653;SDS011;26344;45.532;9.232;2023-03-23T08:23:38;7.57;;;3.53;;
40653;SDS011;26344;45.532;9.232;2023-03-23T08:26:08;8.15;;;3.53;;
40653;SDS011;26344;45.532;9.232;2023-03-23T08:28:35;7.78;;;3.42;;
40653;SDS011;26344;45.532;9.232;2023-03-23T08:31:07;6.40;;;2.80;;
40653;SDS011;26344;45.532;9.232;2023-03-23T08:33:35;5.93;;;3.17;;
40653;SDS011;26344;45.532;9.232;2023-03-23T08:36:01;10.93;;;2.85;;
40653;SDS011;26344;45.532;9.232;2023-03-23T08:38:28;8.40;;;3.50;;
40653;SDS011;26344;45.532;9.232;2023-03-23T08:41:01;7.95;;;3.38;;
40653;SDS011;26344;45.532;9.232;2023-03-23T08:43:28;11.95;;;3.08;;
40653;SDS011;26344;45.532;9.232;2023-03-23T08:45:54;6.47;;;3.75;;
40653;SDS011;26344;45.532;9.232;2023-03-23T08:48:22;6.35;;;3.50;;
40653;SDS011;26344;45.532;9.232;2023-03-23T08:50:48;6.82;;;3.60;;
40653;SDS011;26344;45.532;9.232;2023-03-23T08:53:15;11.20;;;3.42;;
40653;SDS011;26344;45.532;9.232;2023-03-23T08:55:41;5.47;;;3.13;;
40653;SDS011;26344;45.532;9.232;2023-03-23T08:58:07;10.38;;;3.47;;
40653;SDS011;26344;45.532;9.232;2023-03-23T09:00:34;5.13;;;3.17;;
40653;SDS011;26344;45.532;9.232;2023-03-23T09:03:00;7.57;;;3.10;;
40653;SDS011;26344;45.532;9.232;2023-03-23T09:05:27;10.93;;;3.20;;
40653;SDS011;26344;45.532;9.232;2023-03-23T09:07:55;4.80;;;2.83;;
40653;SDS011;26344;45.532;9.232;2023-03-23T09:10:23;6.40;;;3.40;;
40653;SDS011;26344;45.532;9.232;2023-03-23T09:12:51;9.15;;;3.70;;
40653;SDS011;26344;45.532;9.232;2023-03-23T09:15:17;6.40;;;3.00;;
40653;SDS011;26344;45.532;9.232;2023-03-23T09:17:45;7.30;;;3.58;;
40653;SDS011;26344;45.532;9.232;2023-03-23T09:20:12;7.40;;;3.40;;
40653;SDS011;26344;45.532;9.232;2023-03-23T09:22:48;9.48;;;3.42;;
40653;SDS011;26344;45.532;9.232;2023-03-23T09:25:15;7.38;;;3.75;;
40653;SDS011;26344;45.532;9.232;2023-03-23T09:27:46;5.05;;;3.40;;
40653;SDS011;26344;45.532;9.232;2023-03-23T09:30:14;10.32;;;3.03;;
40653;SDS011;26344;45.532;9.232;2023-03-23T09:32:40;11.00;;;3.38;;
40653;SDS011;26344;45.532;9.232;2023-03-23T09:35:09;4.87;;;2.90;;
40653;SDS011;26344;45.532;9.232;2023-03-23T09:37:37;7.30;;;3.60;;
40653;SDS011;26344;45.532;9.232;2023-03-23T09:40:04;9.60;;;4.53;;
40653;SDS011;26344;45.532;9.232;2023-03-23T09:45:02;7.03;;;3.90;;
40653;SDS011;26344;45.532;9.232;2023-03-23T09:48:00;7.90;;;3.85;;
40653;SDS011;26344;45.532;9.232;2023-03-23T09:50:29;9.20;;;4.10;;
40653;SDS011;26344;45.532;9.232;2023-03-23T09:55:46;6.25;;;3.60;;
40653;SDS011;26344;45.532;9.232;2023-03-23T10:00:40;10.27;;;4.10;;
40653;SDS011;26344;45.532;9.232;2023-03-23T10:03:13;10.25;;;4.18;;
40653;SDS011;26344;45.532;9.232;2023-03-23T10:05:49;9.20;;;4.45;;
40653;SDS011;26344;45.532;9.232;2023-03-23T10:08:16;10.00;;;4.68;;
40653;SDS011;26344;45.532;9.232;2023-03-23T10:15:57;7.15;;;4.47;;
40653;SDS011;26344;45.532;9.232;2023-03-23T10:18:25;6.68;;;4.68;;
40653;SDS011;26344;45.532;9.232;2023-03-23T10:20:59;9.10;;;4.90;;
40653;SDS011;26344;45.532;9.232;2023-03-23T10:23:34;7.22;;;4.30;;
40653;SDS011;26344;45.532;9.232;2023-03-23T10:28:48;8.57;;;4.97;;
40653;SDS011;26344;45.532;9.232;2023-03-23T10:31:20;8.68;;;5.40;;
40653;SDS011;26344;45.532;9.232;2023-03-23T10:33:48;6.32;;;4.35;;
40653;SDS011;26344;45.532;9.232;2023-03-23T10:36:24;12.98;;;6.00;;
40653;SDS011;26344;45.532;9.232;2023-03-23T10:38:59;11.52;;;6.35;;
40653;SDS011;26344;45.532;9.232;2023-03-23T10:41:26;11.85;;;6.30;;
40653;SDS011;26344;45.532;9.232;2023-03-23T10:43:52;12.13;;;7.32;;
40653;SDS011;26344;45.532;9.232;2023-03-23T10:46:22;10.93;;;5.80;;
40653;SDS011;26344;45.532;9.232;2023-03-23T10:48:51;10.18;;;6.40;;
40653;SDS011;26344;45.532;9.232;2023-03-23T10:51:21;11.25;;;6.35;;
40653;SDS011;26344;45.532;9.232;2023-03-23T10:53:51;9.68;;;6.60;;
40653;SDS011;26344;45.532;9.232;2023-03-23T10:56:25;8.77;;;6.30;;
40653;SDS011;26344;45.532;9.232;2023-03-23T10:58:52;12.32;;;6.57;;
40653;SDS011;26344;45.532;9.232;2023-03-23T11:01:19;15.27;;;6.32;;
40653;SDS011;26344;45.532;9.232;2023-03-23T11:03:47;15.23;;;6.82;;
40653;SDS011;26344;45.532;9.232;2023-03-23T11:06:24;11.25;;;6.88;;
40653;SDS011;26344;45.532;9.232;2023-03-23T11:08:56;12.95;;;7.45;;
40653;SDS011;26344;45.532;9.232;2023-03-23T11:13:55;11.48;;;7.07;;
40653;SDS011;26344;45.532;9.232;2023-03-23T11:16:25;11.40;;;8.13;;
40653;SDS011;26344;45.532;9.232;2023-03-23T11:18:52;10.90;;;8.23;;
40653;SDS011;26344;45.532;9.232;2023-03-23T11:21:19;14.68;;;8.25;;
40653;SDS011;26344;45.532;9.232;2023-03-23T11:23:53;16.25;;;8.15;;
40653;SDS011;26344;45.532;9.232;2023-03-23T11:26:25;10.90;;;7.22;;
40653;SDS011;26344;45.532;9.232;2023-03-23T11:31:18;25.20;;;9.93;;
40653;SDS011;26344;45.532;9.232;2023-03-23T11:33:50;11.65;;;7.90;;
40653;SDS011;26344;45.532;9.232;2023-03-23T11:36:18;13.20;;;8.52;;
40653;SDS011;26344;45.532;9.232;2023-03-23T11:38:44;13.95;;;8.52;;
40653;SDS011;26344;45.532;9.232;2023-03-23T11:41:11;15.43;;;8.23;;
40653;SDS011;26344;45.532;9.232;2023-03-23T11:43:43;12.70;;;7.65;;
40653;SDS011;26344;45.532;9.232;2023-03-23T11:46:20;11.25;;;7.65;;
40653;SDS011;26344;45.532;9.232;2023-03-23T11:48:51;11.52;;;7.70;;
40653;SDS011;26344;45.532;9.232;2023-03-23T11:54:15;9.80;;;7.40;;
40653;SDS011;26344;45.532;9.232;2023-03-23T11:56:43;14.52;;;8.00;;
40653;SDS011;26344;45.532;9.232;2023-03-23T11:59:11;10.90;;;6.78;;
40653;SDS011;26344;45.532;9.232;2023-03-23T12:14:23;10.90;;;7.30;;
40653;SDS011;26344;45.532;9.232;2023-03-23T12:16:58;13.32;;;6.93;;
40653;SDS011;26344;45.532;9.232;2023-03-23T12:19:38;11.05;;;7.25;;
40653;SDS011;26344;45.532;9.232;2023-03-23T12:24:43;10.77;;;6.93;;
40653;SDS011;26344;45.532;9.232;2023-03-23T12:35:22;10.32;;;7.78;;
40653;SDS011;26344;45.532;9.232;2023-03-23T12:42:59;13.90;;;9.20;;
40653;SDS011;26344;45.532;9.232;2023-03-23T12:47:58;14.23;;;9.20;;
40653;SDS011;26344;45.532;9.232;2023-03-23T12:50:33;15.82;;;7.63;;
40653;SDS011;26344;45.532;9.232;2023-03-23T12:53:19;18.05;;;7.35;;
40653;SDS011;26344;45.532;9.232;2023-03-23T12:58:21;11.48;;;7.93;;
40653;SDS011;26344;45.532;9.232;2023-03-23T13:05:44;11.75;;;7.35;;
40653;SDS011;26344;45.532;9.232;2023-03-23T13:08:21;15.70;;;7.28;;
40653;SDS011;26344;45.532;9.232;2023-03-23T13:10:48;13.60;;;7.55;;
40653;SDS011;26344;45.532;9.232;2023-03-23T13:13:22;13.82;;;8.18;;
40653;SDS011;26344;45.532;9.232;2023-03-23T13:15:58;11.82;;;7.82;;
40653;SDS011;26344;45.532;9.232;2023-03-23T13:21:16;13.45;;;7.50;;
40653;SDS011;26344;45.532;9.232;2023-03-23T13:23:45;13.15;;;7.25;;
40653;SDS011;26344;45.532;9.232;2023-03-23T13:26:14;11.00;;;7.97;;
40653;SDS011;26344;45.532;9.232;2023-03-23T13:29:05;11.18;;;7.18;;
40653;SDS011;26344;45.532;9.232;2023-03-23T13:31:37;12.75;;;6.60;;
40653;SDS011;26344;45.532;9.232;2023-03-23T13:36:43;11.20;;;6.22;;
40653;SDS011;26344;45.532;9.232;2023-03-23T13:40:15;11.07;;;6.80;;
40653;SDS011;26344;45.532;9.232;2023-03-23T13:44:55;10.90;;;7.35;;
40653;SDS011;26344;45.532;9.232;2023-03-23T13:50:00;9.40;;;5.82;;
40653;SDS011;26344;45.532;9.232;2023-03-23T13:55:22;10.18;;;5.57;;
40653;SDS011;26344;45.532;9.232;2023-03-23T13:57:55;8.65;;;5.95;;
40653;SDS011;26344;45.532;9.232;2023-03-23T14:03:01;7.97;;;6.28;;
40653;SDS011;26344;45.532;9.232;2023-03-23T14:05:34;10.88;;;5.50;;
40653;SDS011;26344;45.532;9.232;2023-03-23T14:08:03;8.18;;;5.88;;
40653;SDS011;26344;45.532;9.232;2023-03-23T14:10:39;12.23;;;6.15;;
40653;SDS011;26344;45.532;9.232;2023-03-23T14:13:11;8.63;;;4.82;;
40653;SDS011;26344;45.532;9.232;2023-03-23T14:15:43;9.07;;;5.10;;
40653;SDS011;26344;45.532;9.232;2023-03-23T14:18:13;7.80;;;5.22;;
40653;SDS011;26344;45.532;9.232;2023-03-23T14:23:05;9.48;;;4.78;;
40653;SDS011;26344;45.532;9.232;2023-03-23T14:25:31;11.82;;;5.53;;
40653;SDS011;26344;45.532;9.232;2023-03-23T14:27:57;16.80;;;5.88;;
40653;SDS011;26344;45.532;9.232;2023-03-23T14:30:25;9.57;;;4.93;;
40653;SDS011;26344;45.532;9.232;2023-03-23T14:32:52;15.32;;;5.68;;
40653;SDS011;26344;45.532;9.232;2023-03-23T14:35:29;7.43;;;4.95;;
40653;SDS011;26344;45.532;9.232;2023-03-23T14:37:56;9.13;;;5.18;;
40653;SDS011;26344;45.532;9.232;2023-03-23T14:40:22;15.02;;;5.43;;
40653;SDS011;26344;45.532;9.232;2023-03-23T14:42:49;11.07;;;5.63;;
40653;SDS011;26344;45.532;9.232;2023-03-23T14:45:19;8.02;;;5.38;;
40653;SDS011;26344;45.532;9.232;2023-03-23T14:47:46;10.20;;;5.25;;
40653;SDS011;26344;45.532;9.232;2023-03-23T14:50:26;11.48;;;5.22;;
40653;SDS011;26344;45.532;9.232;2023-03-23T14:52:55;11.48;;;5.55;;
40653;SDS011;26344;45.532;9.232;2023-03-23T14:55:22;6.85;;;5.07;;
40653;SDS011;26344;45.532;9.232;2023-03-23T14:57:49;14.45;;;6.28;;
40653;SDS011;26344;45.532;9.232;2023-03-23T15:02:45;11.85;;;7.13;;
40653;SDS011;26344;45.532;9.232;2023-03-23T15:05:25;13.00;;;6.55;;
40653;SDS011;26344;45.532;9.232;2023-03-23T15:07:52;16.67;;;6.85;;
40653;SDS011;26344;45.532;9.232;2023-03-23T15:10:20;15.05;;;6.35;;
40653;SDS011;26344;45.532;9.232;2023-03-23T15:12:47;8.85;;;5.93;;
40653;SDS011;26344;45.532;9.232;2023-03-23T15:15:21;9.70;;;5.38;;
40653;SDS011;26344;45.532;9.232;2023-03-23T15:17:48;9.55;;;5.18;;
40653;SDS011;26344;45.532;9.232;2023-03-23T15:22:52;10.90;;;5.85;;
40653;SDS011;26344;45.532;9.232;2023-03-23T15:25:22;13.20;;;6.47;;
40653;SDS011;26344;45.532;9.232;2023-03-23T15:27:50;11.43;;;5.72;;
40653;SDS011;26344;45.532;9.232;2023-03-23T15:32:49;13.63;;;5.65;;
40653;SDS011;26344;45.532;9.232;2023-03-23T15:35:22;10.13;;;5.38;;
40653;SDS011;26344;45.532;9.232;2023-03-23T15:37:49;11.00;;;5.38;;
40653;SDS011;26344;45.532;9.232;2023-03-23T15:40:17;13.32;;;4.80;;
40653;SDS011;26344;45.532;9.232;2023-03-23T15:42:44;10.43;;;5.75;;
40653;SDS011;26344;45.532;9.232;2023-03-23T15:47:44;10.27;;;5.40;;
40653;SDS011;26344;45.532;9.232;2023-03-23T15:50:32;12.43;;;5.82;;
40653;SDS011;26344;45.532;9.232;2023-03-23T15:52:56;11.10;;;5.97;;
40653;SDS011;26344;45.532;9.232;2023-03-23T15:55:29;11.23;;;5.30;;
40653;SDS011;26344;45.532;9.232;2023-03-23T15:58:00;11.70;;;4.38;;
40653;SDS011;26344;45.532;9.232;2023-03-23T16:00:27;10.90;;;5.20;;
40653;SDS011;26344;45.532;9.232;2023-03-23T16:02:56;10.70;;;5.65;;
40653;SDS011;26344;45.532;9.232;2023-03-23T16:05:22;8.80;;;5.07;;
40653;SDS011;26344;45.532;9.232;2023-03-23T16:07:48;14.52;;;7.78;;
40653;SDS011;26344;45.532;9.232;2023-03-23T16:10:19;10.27;;;6.28;;
40653;SDS011;26344;45.532;9.232;2023-03-23T16:13:00;9.82;;;5.30;;
40653;SDS011;26344;45.532;9.232;2023-03-23T16:15:29;10.93;;;4.45;;
40653;SDS011;26344;45.532;9.232;2023-03-23T16:17:55;10.18;;;4.65;;
40653;SDS011;26344;45.532;9.232;2023-03-23T16:20:21;11.05;;;4.82;;
40653;SDS011;26344;45.532;9.232;2023-03-23T16:22:48;10.40;;;5.20;;
40653;SDS011;26344;45.532;9.232;2023-03-23T16:25:14;9.30;;;5.72;;
40653;SDS011;26344;45.532;9.232;2023-03-23T16:27:41;8.88;;;5.20;;
40653;SDS011;26344;45.532;9.232;2023-03-23T16:30:17;9.68;;;5.25;;
40653;SDS011;26344;45.532;9.232;2023-03-23T16:32:43;12.23;;;5.38;;
40653;SDS011;26344;45.532;9.232;2023-03-23T16:35:10;12.30;;;5.10;;
40653;SDS011;26344;45.532;9.232;2023-03-23T16:37:37;14.07;;;5.45;;
40653;SDS011;26344;45.532;9.232;2023-03-23T16:40:03;9.75;;;4.70;;
40653;SDS011;26344;45.532;9.232;2023-03-23T16:42:30;11.02;;;4.97;;
40653;SDS011;26344;45.532;9.232;2023-03-23T16:44:56;10.23;;;5.10;;
40653;SDS011;26344;45.532;9.232;2023-03-23T16:47:22;8.43;;;5.28;;